Time;durP1;ratioP1;P1;durP2;ratioP2;P2;SDS_P1;SDS_P2;PMS_P1;PMS_P2;Temp;Humidity;BMP_temperature;BMP_pressure;BME280_temperature;BME280_humidity;BME280_pressure;Samples;Min_cycle;Max_cycle;Signal;HPM_P1;HPM_P2
2023/02/06 00:00:10;;;;;;;6.17;4.60;;;1.80;99.90;;;;;;5008078;28;20188;-59
2023/02/06 00:02:35;;;;;;;7.10;4.90;;;1.80;99.90;;;;;;5005202;28;20204;-59
2023/02/06 00:05:01;;;;;;;6.87;5.20;;;1.80;99.90;;;;;;5008053;28;20504;-59
2023/02/06 00:07:28;;;;;;;5.60;4.00;;;1.80;99.90;;;;;;5008285;28;20817;-58
2023/02/06 00:09:54;;;;;;;8.57;5.00;;;1.80;99.90;;;;;;5005855;28;20182;-60
2023/02/06 00:12:20;;;;;;;6.83;4.63;;;1.80;99.90;;;;;;5009504;28;20439;-58
2023/02/06 00:14:46;;;;;;;7.90;4.57;;;1.80;99.90;;;;;;5006881;28;20442;-59
2023/02/06 00:17:11;;;;;;;5.73;4.13;;;1.80;99.90;;;;;;5009602;28;20925;-59
2023/02/06 00:19:37;;;;;;;6.53;4.47;;;1.80;99.90;;;;;;5019926;28;20213;-57
2023/02/06 00:22:03;;;;;;;7.50;5.00;;;1.80;99.90;;;;;;5008703;28;20937;-58
2023/02/06 00:24:28;;;;;;;9.77;5.70;;;1.80;99.90;;;;;;5004241;28;20205;-58
2023/02/06 00:26:54;;;;;;;7.23;4.90;;;1.80;99.90;;;;;;5011050;28;20255;-59
2023/02/06 00:29:20;;;;;;;6.60;5.00;;;1.80;99.90;;;;;;5008341;28;20172;-58
2023/02/06 00:31:45;;;;;;;11.37;4.80;;;1.80;99.90;;;;;;5003866;28;20896;-59
2023/02/06 00:34:11;;;;;;;8.00;4.80;;;1.80;99.90;;;;;;5007721;28;20184;-58
2023/02/06 00:36:36;;;;;;;9.60;5.13;;;1.80;99.90;;;;;;5009475;28;20275;-60
2023/02/06 00:39:02;;;;;;;5.50;4.47;;;1.80;99.90;;;;;;5010398;28;20232;-58
2023/02/06 00:41:28;;;;;;;6.50;4.97;;;1.80;99.90;;;;;;5005453;28;20471;-61
2023/02/06 00:43:53;;;;;;;6.63;4.70;;;1.80;99.90;;;;;;5015872;28;20192;-59
2023/02/06 00:46:19;;;;;;;5.50;4.20;;;1.80;99.90;;;;;;5009728;28;20210;-60
2023/02/06 00:48:45;;;;;;;5.77;4.30;;;1.80;99.90;;;;;;5008077;28;20557;-60
2023/02/06 00:51:10;;;;;;;4.67;3.80;;;1.80;99.90;;;;;;5004948;28;20224;-60
2023/02/06 00:53:36;;;;;;;5.07;3.90;;;1.70;99.90;;;;;;5006697;28;20188;-58
2023/02/06 00:56:02;;;;;;;6.27;4.20;;;1.70;99.90;;;;;;5009627;28;20238;-59
2023/02/06 00:58:28;;;;;;;5.93;4.37;;;1.70;99.90;;;;;;5009860;28;20449;-59
2023/02/06 01:00:53;;;;;;;5.00;3.70;;;1.70;99.90;;;;;;5002248;28;20286;-60
2023/02/06 01:03:19;;;;;;;4.33;3.43;;;1.70;99.90;;;;;;5006098;28;20268;-59
2023/02/06 01:05:45;;;;;;;4.50;3.07;;;1.70;99.90;;;;;;5008036;28;20574;-58
2023/02/06 01:08:11;;;;;;;2.90;2.67;;;1.60;99.90;;;;;;5007194;28;20271;-59
2023/02/06 01:10:40;;;;;;;3.67;3.37;;;1.60;99.90;;;;;;5009911;28;20188;-58
2023/02/06 01:13:06;;;;;;;3.40;3.10;;;1.60;99.90;;;;;;5007555;28;20268;-58
2023/02/06 01:15:32;;;;;;;3.57;3.10;;;1.60;99.90;;;;;;5009198;28;20885;-58
2023/02/06 01:17:57;;;;;;;4.30;3.40;;;1.60;99.90;;;;;;5009063;28;20260;-60
2023/02/06 01:20:23;;;;;;;4.43;3.20;;;1.70;99.90;;;;;;5015109;28;20234;-59
2023/02/06 01:22:49;;;;;;;4.50;3.73;;;1.60;99.90;;;;;;5008699;28;20204;-58
2023/02/06 01:25:15;;;;;;;4.93;3.80;;;1.60;99.90;;;;;;5010529;28;20247;-59
2023/02/06 01:27:40;;;;;;;4.13;3.60;;;1.60;99.90;;;;;;5006156;28;20443;-59
2023/02/06 01:30:07;;;;;;;4.90;3.60;;;1.70;99.90;;;;;;5007918;28;20199;-59
2023/02/06 01:32:36;;;;;;;4.53;3.40;;;1.70;99.90;;;;;;5018525;28;20198;-60
2023/02/06 01:35:02;;;;;;;5.93;4.13;;;1.70;99.90;;;;;;5012850;28;20481;-59
2023/02/06 01:37:29;;;;;;;5.23;3.30;;;1.70;99.90;;;;;;5009993;28;20861;-59
2023/02/06 01:39:54;;;;;;;4.77;3.30;;;1.70;99.90;;;;;;5004478;28;20177;-59
2023/02/06 01:42:20;;;;;;;4.60;3.60;;;1.70;99.90;;;;;;5008898;28;20470;-59
2023/02/06 01:44:46;;;;;;;4.20;3.60;;;1.70;99.90;;;;;;5013524;28;20186;-58
2023/02/06 01:47:12;;;;;;;4.10;3.23;;;1.70;99.90;;;;;;5008111;28;20219;-59
2023/02/06 01:49:42;;;;;;;4.67;3.70;;;1.70;99.90;;;;;;5010343;28;20175;-59
2023/02/06 01:52:21;;;;;;;5.83;4.00;;;1.70;99.90;;;;;;5007913;28;20466;-59
2023/02/06 01:54:55;;;;;;;5.13;4.40;;;1.70;99.90;;;;;;5007712;28;20463;-59
2023/02/06 01:57:22;;;;;;;3.93;3.40;;;1.70;99.90;;;;;;5008219;28;20444;-59
2023/02/06 01:59:53;;;;;;;6.03;4.37;;;1.70;99.90;;;;;;5009779;28;20518;-59
2023/02/06 02:02:21;;;;;;;6.57;5.20;;;1.70;99.90;;;;;;5013115;28;20471;-59
2023/02/06 02:04:47;;;;;;;7.60;4.67;;;1.70;99.90;;;;;;5007751;28;20437;-57
2023/02/06 02:07:18;;;;;;;9.80;4.80;;;1.70;99.90;;;;;;5010744;28;20466;-59
2023/02/06 02:09:44;;;;;;;5.37;4.60;;;1.70;99.90;;;;;;5008621;28;20431;-60
2023/02/06 02:12:10;;;;;;;9.50;5.87;;;1.70;99.90;;;;;;5008345;28;20458;-58
2023/02/06 02:14:38;;;;;;;6.07;4.47;;;1.60;99.90;;;;;;5009227;28;20240;-58
2023/02/06 02:17:25;;;;;;;7.67;4.83;;;1.60;99.90;;;;;;5011419;28;20191;-58
2023/02/06 02:20:10;;;;;;;7.80;4.53;;;1.60;99.90;;;;;;5005670;28;20519;-59
2023/02/06 02:23:02;;;;;;;8.23;5.20;;;1.60;99.90;;;;;;5010346;28;20989;-59
2023/02/06 02:26:00;;;;;;;7.90;4.70;;;1.60;99.90;;;;;;5025896;28;20462;-59
2023/02/06 02:28:28;;;;;;;7.40;5.50;;;1.60;99.90;;;;;;4975369;28;20796;-59
2023/02/06 02:31:45;;;;;;;7.57;4.90;;;1.60;99.90;;;;;;5006284;28;20466;-60
2023/02/06 02:34:29;;;;;;;7.10;4.53;;;1.50;99.90;;;;;;4997697;28;20492;-58
2023/02/06 02:37:07;;;;;;;7.37;4.70;;;1.50;99.90;;;;;;5007769;28;20433;-60
2023/02/06 02:39:54;;;;;;;7.50;4.87;;;1.50;99.90;;;;;;5009249;28;20443;-59
2023/02/06 02:42:30;;;;;;;10.80;5.00;;;1.50;99.90;;;;;;5006572;28;20449;-60
2023/02/06 02:45:30;;;;;;;8.07;5.13;;;1.50;99.90;;;;;;5006680;28;20450;-60
2023/02/06 02:48:38;;;;;;;8.60;5.23;;;1.50;99.90;;;;;;4992329;28;20492;-59
2023/02/06 02:51:05;;;;;;;8.30;5.50;;;1.40;99.90;;;;;;4960944;28;20462;-59
2023/02/06 02:53:30;;;;;;;8.00;4.90;;;1.40;99.90;;;;;;5005612;28;20422;-59
2023/02/06 02:55:56;;;;;;;7.60;4.97;;;1.40;99.90;;;;;;5004306;28;20434;-58
2023/02/06 02:58:31;;;;;;;8.93;5.00;;;1.40;99.90;;;;;;5013204;28;20186;-58
2023/02/06 03:01:01;;;;;;;7.30;4.97;;;1.40;99.90;;;;;;5016015;28;20218;-58
2023/02/06 03:03:31;;;;;;;9.20;5.53;;;1.40;99.90;;;;;;5008260;28;20606;-59
2023/02/06 03:06:02;;;;;;;6.80;4.60;;;1.40;99.90;;;;;;5002452;28;20964;-58
2023/02/06 03:08:41;;;;;;;6.10;4.90;;;1.40;99.90;;;;;;5000078;28;20439;-60
2023/02/06 03:11:17;;;;;;;6.23;4.67;;;1.40;99.90;;;;;;5015717;28;20858;-58
2023/02/06 03:13:43;;;;;;;6.53;4.63;;;1.40;99.90;;;;;;5005777;28;20426;-59
2023/02/06 03:16:17;;;;;;;9.60;4.93;;;1.40;99.90;;;;;;5026228;28;20434;-58
2023/02/06 03:18:51;;;;;;;8.43;5.43;;;1.40;99.90;;;;;;5020560;28;20968;-58
2023/02/06 03:21:19;;;;;;;9.40;5.70;;;1.40;99.90;;;;;;5010643;28;20438;-59
2023/02/06 03:23:48;;;;;;;9.13;5.27;;;1.50;99.90;;;;;;5008019;28;20450;-59
2023/02/06 03:26:18;;;;;;;10.30;5.57;;;1.40;99.90;;;;;;5010531;28;20454;-58
2023/02/06 03:28:53;;;;;;;7.50;5.00;;;1.50;99.90;;;;;;5016655;28;20463;-58
2023/02/06 03:31:31;;;;;;;7.13;5.27;;;1.50;99.90;;;;;;5013387;28;20540;-58
2023/02/06 03:34:20;;;;;;;5.97;4.57;;;1.50;99.90;;;;;;5013173;28;20477;-58
2023/02/06 03:36:47;;;;;;;5.97;4.33;;;1.50;99.90;;;;;;5004894;28;22226;-58
2023/02/06 03:39:13;;;;;;;6.93;5.07;;;1.40;99.90;;;;;;5006258;28;20814;-58
2023/02/06 03:41:40;;;;;;;8.30;4.90;;;1.50;99.90;;;;;;5015892;28;20466;-58
2023/02/06 03:44:14;;;;;;;9.77;6.00;;;1.50;99.90;;;;;;5012960;28;20177;-60
2023/02/06 03:46:42;;;;;;;10.03;5.67;;;1.50;99.90;;;;;;5001145;28;20462;-60
2023/02/06 03:49:12;;;;;;;7.30;5.13;;;1.50;99.90;;;;;;5014616;28;20434;-58
2023/02/06 03:51:46;;;;;;;10.80;5.70;;;1.50;99.90;;;;;;5006212;28;20980;-58
2023/02/06 03:54:16;;;;;;;8.40;6.30;;;1.50;99.90;;;;;;5009962;28;20510;-58
2023/02/06 03:56:52;;;;;;;10.23;6.50;;;1.50;99.90;;;;;;5016178;28;20441;-58
2023/02/06 03:59:18;;;;;;;12.50;5.73;;;1.50;99.90;;;;;;5009788;28;20533;-60
2023/02/06 04:01:47;;;;;;;8.33;6.03;;;1.40;99.90;;;;;;5009554;28;21063;-58
2023/02/06 04:04:16;;;;;;;7.27;5.53;;;1.40;99.90;;;;;;5005700;28;20177;-58
2023/02/06 04:06:42;;;;;;;7.80;5.67;;;1.40;99.90;;;;;;5010500;28;20500;-58
2023/02/06 04:09:08;;;;;;;8.73;5.63;;;1.40;99.90;;;;;;5006919;28;20426;-58
2023/02/06 04:11:33;;;;;;;12.10;6.13;;;1.40;99.90;;;;;;4991888;28;20513;-58
2023/02/06 04:13:59;;;;;;;9.10;6.23;;;1.40;99.90;;;;;;5005450;28;20211;-59
2023/02/06 04:16:25;;;;;;;8.57;5.80;;;1.40;99.90;;;;;;5017429;28;20196;-58
2023/02/06 04:18:50;;;;;;;11.07;6.20;;;1.40;99.90;;;;;;5006732;28;20211;-58
2023/02/06 04:21:16;;;;;;;9.07;5.90;;;1.40;99.90;;;;;;5015683;28;20343;-58
2023/02/06 04:23:41;;;;;;;7.70;5.27;;;1.40;99.90;;;;;;5010815;28;20189;-60
2023/02/06 04:26:07;;;;;;;7.73;5.57;;;1.40;99.90;;;;;;5003217;28;20207;-58
2023/02/06 04:28:32;;;;;;;6.23;4.80;;;1.40;99.90;;;;;;5006195;28;20175;-59
2023/02/06 04:30:58;;;;;;;7.63;5.53;;;1.40;99.90;;;;;;5006237;28;20242;-58
2023/02/06 04:33:24;;;;;;;9.53;5.67;;;1.40;99.90;;;;;;5004175;28;20180;-59
2023/02/06 04:35:50;;;;;;;10.30;5.93;;;1.40;99.90;;;;;;5003248;28;20331;-58
2023/02/06 04:38:16;;;;;;;7.97;5.13;;;1.40;99.90;;;;;;5014099;28;20559;-58
2023/02/06 04:40:42;;;;;;;8.13;5.37;;;1.40;99.90;;;;;;5009765;28;20198;-57
2023/02/06 04:43:07;;;;;;;7.90;5.33;;;1.40;99.90;;;;;;5027093;28;20437;-58
2023/02/06 04:45:33;;;;;;;8.23;5.10;;;1.40;99.90;;;;;;5009212;28;20274;-58
2023/02/06 04:47:58;;;;;;;9.33;5.50;;;1.40;99.90;;;;;;5011550;28;20182;-58
2023/02/06 04:50:24;;;;;;;10.50;6.50;;;1.40;99.90;;;;;;5012396;28;20183;-58
2023/02/06 04:52:50;;;;;;;9.33;5.53;;;1.40;99.90;;;;;;5001099;28;20288;-54
2023/02/06 04:55:16;;;;;;;10.60;6.30;;;1.50;99.90;;;;;;5005987;28;20868;-58
2023/02/06 04:57:41;;;;;;;8.73;5.50;;;1.40;99.90;;;;;;5009413;28;20190;-58
2023/02/06 05:00:09;;;;;;;7.37;5.53;;;1.50;99.90;;;;;;5007122;28;20166;-59
2023/02/06 05:02:38;;;;;;;8.77;5.47;;;1.50;99.90;;;;;;5005944;28;20188;-59
2023/02/06 05:05:05;;;;;;;7.93;5.67;;;1.50;99.90;;;;;;4995563;28;20435;-59
2023/02/06 05:07:31;;;;;;;7.97;5.40;;;1.50;99.90;;;;;;5005408;28;20557;-58
2023/02/06 05:09:56;;;;;;;8.60;6.63;;;1.50;99.90;;;;;;5011243;28;21378;-58
2023/02/06 05:12:23;;;;;;;11.60;6.67;;;1.50;99.90;;;;;;5010875;28;20293;-59
2023/02/06 05:14:49;;;;;;;10.00;6.20;;;1.60;99.90;;;;;;5002737;28;20323;-60
2023/02/06 05:17:14;;;;;;;10.03;6.37;;;1.60;99.90;;;;;;5010525;28;20546;-58
2023/02/06 05:19:40;;;;;;;9.13;5.53;;;1.60;99.90;;;;;;5003247;28;20272;-59
2023/02/06 05:22:06;;;;;;;9.03;5.80;;;1.50;99.90;;;;;;5003129;28;20231;-60
2023/02/06 05:24:31;;;;;;;9.07;5.90;;;1.50;99.90;;;;;;5010406;28;20201;-58
2023/02/06 05:26:57;;;;;;;11.40;6.90;;;1.50;99.90;;;;;;4999736;28;20208;-61
2023/02/06 05:29:24;;;;;;;8.87;5.90;;;1.50;99.90;;;;;;5009012;28;20196;-59
2023/02/06 05:31:50;;;;;;;6.10;5.30;;;1.50;99.90;;;;;;5010664;28;20459;-59
2023/02/06 05:34:16;;;;;;;8.27;5.67;;;1.50;99.90;;;;;;5006388;28;20435;-58
2023/02/06 05:36:42;;;;;;;9.83;6.63;;;1.50;99.90;;;;;;4997755;28;20443;-59
2023/02/06 05:39:07;;;;;;;11.50;6.30;;;1.50;99.90;;;;;;4975199;28;20182;-58
2023/02/06 05:41:33;;;;;;;7.30;5.60;;;1.40;99.90;;;;;;4992173;28;20204;-56
2023/02/06 05:43:58;;;;;;;9.57;5.70;;;1.40;99.90;;;;;;5001581;28;20284;-61
2023/02/06 05:46:24;;;;;;;11.67;6.80;;;1.40;99.90;;;;;;5000249;28;20204;-59
2023/02/06 05:48:50;;;;;;;10.27;6.80;;;1.40;99.90;;;;;;5001254;28;20953;-61
2023/02/06 05:51:15;;;;;;;11.67;5.60;;;1.40;99.90;;;;;;5004782;28;20199;-58
2023/02/06 05:53:41;;;;;;;11.30;6.60;;;1.40;99.90;;;;;;5004720;28;20177;-59
2023/02/06 05:56:07;;;;;;;13.73;7.30;;;1.40;99.90;;;;;;5005512;28;20183;-59
2023/02/06 05:58:32;;;;;;;9.50;5.93;;;1.30;99.90;;;;;;5012676;28;20187;-59
2023/02/06 06:00:58;;;;;;;11.47;6.63;;;1.30;99.90;;;;;;5003516;28;20201;-58
2023/02/06 06:03:24;;;;;;;10.43;6.03;;;1.30;99.90;;;;;;4999746;28;20180;-60
2023/02/06 06:05:50;;;;;;;12.10;7.00;;;1.30;99.90;;;;;;4999176;28;20754;-59
2023/02/06 06:08:15;;;;;;;8.83;6.30;;;1.30;99.90;;;;;;5005840;28;20172;-61
2023/02/06 06:10:41;;;;;;;13.40;6.80;;;1.30;99.90;;;;;;5008788;28;20847;-59
2023/02/06 06:13:07;;;;;;;15.87;6.77;;;1.20;99.90;;;;;;5007275;28;20195;-59
2023/02/06 06:15:32;;;;;;;12.87;7.07;;;1.20;99.90;;;;;;5007162;28;20214;-58
2023/02/06 06:17:58;;;;;;;11.70;5.80;;;1.20;99.90;;;;;;5008585;28;20535;-60
2023/02/06 06:20:24;;;;;;;11.90;6.53;;;1.20;99.90;;;;;;5007975;28;20374;-61
2023/02/06 06:22:50;;;;;;;13.13;7.10;;;1.20;99.90;;;;;;5008957;28;20345;-59
2023/02/06 06:25:15;;;;;;;13.33;7.00;;;1.20;99.90;;;;;;5004918;28;20180;-59
2023/02/06 06:27:41;;;;;;;12.83;7.43;;;1.20;99.90;;;;;;5004414;28;20191;-59
2023/02/06 06:30:07;;;;;;;12.10;6.23;;;1.20;99.90;;;;;;4999270;28;20176;-58
2023/02/06 06:32:33;;;;;;;11.13;7.13;;;1.20;99.90;;;;;;5007899;28;20609;-59
2023/02/06 06:34:59;;;;;;;14.90;6.80;;;1.20;99.90;;;;;;5006738;28;20449;-60
2023/02/06 06:37:24;;;;;;;11.67;6.50;;;1.20;99.90;;;;;;5008623;28;20194;-59
2023/02/06 06:39:50;;;;;;;12.00;6.10;;;1.20;99.90;;;;;;5006704;28;20185;-59
2023/02/06 06:42:15;;;;;;;17.23;6.60;;;1.30;99.90;;;;;;5007536;28;20214;-59
2023/02/06 06:44:41;;;;;;;11.93;6.60;;;1.30;99.90;;;;;;5001631;28;20681;-60
2023/02/06 06:47:07;;;;;;;12.00;6.23;;;1.30;99.90;;;;;;4996546;28;20203;-60
2023/02/06 06:49:32;;;;;;;13.07;7.07;;;1.30;99.90;;;;;;4998904;28;20777;-62
2023/02/06 06:51:58;;;;;;;13.07;7.43;;;1.30;99.90;;;;;;4995940;28;20208;-61
2023/02/06 06:54:23;;;;;;;13.93;7.20;;;1.30;99.90;;;;;;5013846;28;20178;-60
2023/02/06 06:56:49;;;;;;;14.27;7.43;;;1.30;99.90;;;;;;5008656;28;20286;-60
2023/02/06 06:59:14;;;;;;;12.53;7.30;;;1.30;99.90;;;;;;5012094;28;20176;-59
2023/02/06 07:01:40;;;;;;;14.90;7.93;;;1.30;99.90;;;;;;5005759;28;20311;-60
2023/02/06 07:04:06;;;;;;;14.90;7.60;;;1.30;99.90;;;;;;5010022;28;20176;-60
2023/02/06 07:06:31;;;;;;;16.73;8.60;;;1.30;99.90;;;;;;5009823;28;20196;-59
2023/02/06 07:08:57;;;;;;;15.67;8.27;;;1.30;99.90;;;;;;5005203;28;20172;-60
2023/02/06 07:11:24;;;;;;;17.63;8.70;;;1.40;99.90;;;;;;5013288;28;20683;-59
2023/02/06 07:13:50;;;;;;;14.13;8.40;;;1.40;99.90;;;;;;5007765;28;20265;-61
2023/02/06 07:16:16;;;;;;;19.40;8.40;;;1.40;99.90;;;;;;5012604;28;20867;-61
2023/02/06 07:18:41;;;;;;;18.13;10.80;;;1.40;99.90;;;;;;5009947;28;20183;-60
2023/02/06 07:21:08;;;;;;;14.20;7.60;;;1.30;99.90;;;;;;5005211;28;20606;-57
2023/02/06 07:23:35;;;;;;;17.63;8.83;;;1.30;99.90;;;;;;4998797;28;20560;-58
2023/02/06 07:26:01;;;;;;;12.40;7.73;;;1.30;99.90;;;;;;5002197;28;22826;-59
2023/02/06 07:28:28;;;;;;;13.80;7.67;;;1.30;99.90;;;;;;5002987;28;20514;-59
2023/02/06 07:30:54;;;;;;;14.10;7.30;;;1.30;99.90;;;;;;5003775;28;20208;-59
2023/02/06 07:33:19;;;;;;;13.40;7.63;;;1.30;99.90;;;;;;5003285;28;20605;-59
2023/02/06 07:35:46;;;;;;;15.60;7.07;;;1.30;99.90;;;;;;5008124;28;20877;-59
2023/02/06 07:38:12;;;;;;;12.90;7.60;;;1.30;99.90;;;;;;5008032;28;20187;-59
2023/02/06 07:40:37;;;;;;;11.60;6.67;;;1.20;99.90;;;;;;5006189;28;20434;-61
2023/02/06 07:43:06;;;;;;;12.73;7.00;;;1.20;99.90;;;;;;5008080;28;20172;-60
2023/02/06 07:45:31;;;;;;;15.47;7.50;;;1.20;99.90;;;;;;5006635;28;20207;-59
2023/02/06 07:47:57;;;;;;;14.43;6.50;;;1.20;99.90;;;;;;5006198;28;20810;-60
2023/02/06 07:50:23;;;;;;;15.67;7.90;;;1.20;99.90;;;;;;5006945;28;20191;-59
2023/02/06 07:52:48;;;;;;;16.47;8.37;;;1.30;99.90;;;;;;5006120;28;20282;-59
2023/02/06 07:55:14;;;;;;;12.87;6.70;;;1.30;99.90;;;;;;4999306;28;20182;-59
2023/02/06 07:57:40;;;;;;;17.33;6.10;;;1.30;99.90;;;;;;5007597;28;20261;-60
2023/02/06 08:00:06;;;;;;;10.60;6.70;;;1.40;99.90;;;;;;5001874;28;20171;-59
2023/02/06 08:02:32;;;;;;;12.03;5.83;;;1.40;99.90;;;;;;5008649;28;20591;-60
2023/02/06 08:04:58;;;;;;;10.03;6.23;;;1.40;99.90;;;;;;5005546;28;20951;-59
2023/02/06 08:07:23;;;;;;;12.23;6.37;;;1.40;99.90;;;;;;5003360;28;20632;-59
2023/02/06 08:09:49;;;;;;;9.57;5.60;;;1.40;99.90;;;;;;5008180;28;20204;-59
2023/02/06 08:12:14;;;;;;;8.70;5.53;;;1.40;99.90;;;;;;4996672;28;20674;-60
2023/02/06 08:14:41;;;;;;;11.77;6.20;;;1.40;99.90;;;;;;5000124;28;20193;-60
2023/02/06 08:17:07;;;;;;;10.60;6.30;;;1.40;99.90;;;;;;5012181;28;20183;-59
2023/02/06 08:19:33;;;;;;;12.20;7.17;;;1.40;99.90;;;;;;5006926;28;20492;-60
2023/02/06 08:21:58;;;;;;;12.83;7.37;;;1.50;99.90;;;;;;4996680;28;20294;-59
2023/02/06 08:24:24;;;;;;;12.77;6.90;;;1.60;99.90;;;;;;5003290;28;20175;-59
2023/02/06 08:26:50;;;;;;;12.10;6.53;;;1.60;99.90;;;;;;5013067;28;20210;-59
2023/02/06 08:29:15;;;;;;;14.83;7.50;;;1.70;99.90;;;;;;5004373;28;20745;-59
2023/02/06 08:31:42;;;;;;;12.97;7.27;;;1.80;99.90;;;;;;5007915;28;20700;-60
2023/02/06 08:34:11;;;;;;;14.17;7.10;;;1.90;99.90;;;;;;5008417;28;20172;-59
2023/02/06 08:36:37;;;;;;;13.77;7.20;;;1.90;99.90;;;;;;5005193;28;20439;-59
2023/02/06 08:39:04;;;;;;;18.17;8.07;;;2.00;99.90;;;;;;4997836;28;20493;-60
2023/02/06 08:41:36;;;;;;;15.83;8.27;;;2.00;99.90;;;;;;5007248;28;20438;-60
2023/02/06 08:44:03;;;;;;;13.90;7.83;;;2.00;99.90;;;;;;5006615;28;20509;-59
2023/02/06 08:46:31;;;;;;;11.00;6.77;;;2.00;99.90;;;;;;5000866;28;20466;-60
2023/02/06 08:49:01;;;;;;;19.00;9.03;;;2.00;99.90;;;;;;5007467;28;20506;-59
2023/02/06 08:51:27;;;;;;;16.40;8.87;;;2.00;99.90;;;;;;5008184;28;21021;-59
2023/02/06 08:54:01;;;;;;;11.90;7.90;;;2.10;99.90;;;;;;5005593;28;20441;-59
2023/02/06 08:56:28;;;;;;;13.00;6.73;;;2.20;99.90;;;;;;5006225;28;20184;-59
2023/02/06 08:58:55;;;;;;;12.50;8.00;;;2.30;99.90;;;;;;5019375;28;21154;-59
2023/02/06 09:01:21;;;;;;;12.87;7.50;;;2.40;99.90;;;;;;5004440;28;21004;-59
2023/02/06 09:03:47;;;;;;;14.63;7.67;;;2.50;99.90;;;;;;5007740;28;20439;-59
2023/02/06 09:06:14;;;;;;;14.80;7.87;;;2.60;99.90;;;;;;5008580;28;20284;-59
2023/02/06 09:08:40;;;;;;;13.20;7.43;;;2.80;99.90;;;;;;5009799;28;20179;-59
2023/02/06 09:11:18;;;;;;;14.20;7.20;;;2.90;99.90;;;;;;5007413;28;20443;-59
2023/02/06 09:13:46;;;;;;;14.00;7.07;;;3.00;99.90;;;;;;5006572;28;20504;-59
2023/02/06 09:16:12;;;;;;;12.20;7.20;;;3.10;99.90;;;;;;5006292;28;20940;-59
2023/02/06 09:18:39;;;;;;;14.37;7.10;;;3.20;99.90;;;;;;5010740;28;20489;-58
2023/02/06 09:21:15;;;;;;;12.40;6.70;;;3.30;99.90;;;;;;5011969;28;20548;-59
2023/02/06 09:23:46;;;;;;;13.50;7.60;;;3.30;99.90;;;;;;4997809;28;20439;-59
2023/02/06 09:26:14;;;;;;;15.30;7.83;;;3.30;99.90;;;;;;4999761;28;20470;-60
2023/02/06 09:28:40;;;;;;;13.00;7.50;;;3.20;99.90;;;;;;5004720;28;20443;-59
2023/02/06 09:31:07;;;;;;;12.77;6.50;;;3.10;99.90;;;;;;5007845;28;20509;-62
2023/02/06 09:33:33;;;;;;;12.77;7.27;;;3.10;99.90;;;;;;5011445;28;20182;-59
2023/02/06 09:36:19;;;;;;;11.53;7.30;;;3.00;99.90;;;;;;5006439;28;20439;-58
2023/02/06 09:38:46;;;;;;;14.03;7.23;;;3.00;99.90;;;;;;5007557;28;20439;-59
2023/02/06 09:41:25;;;;;;;12.40;7.40;;;3.00;99.90;;;;;;5010705;28;20451;-58
2023/02/06 09:44:05;;;;;;;15.13;7.93;;;3.10;99.90;;;;;;5010179;28;20883;-57
2023/02/06 09:46:33;;;;;;;13.60;6.87;;;3.00;99.90;;;;;;5003336;28;20483;-58
2023/02/06 09:49:05;;;;;;;12.50;7.20;;;3.10;99.90;;;;;;5008803;28;20931;-58
2023/02/06 09:51:44;;;;;;;11.07;6.93;;;3.20;99.90;;;;;;5008197;28;20451;-58
2023/02/06 09:54:28;;;;;;;11.87;6.53;;;3.30;99.90;;;;;;5008561;28;20963;-58
2023/02/06 09:57:00;;;;;;;10.70;6.80;;;3.40;99.90;;;;;;5008322;28;20513;-58
2023/02/06 09:59:33;;;;;;;12.53;6.07;;;3.50;99.90;;;;;;5006146;28;20466;-58
2023/02/06 10:02:17;;;;;;;13.70;6.60;;;3.50;99.90;;;;;;5003054;28;20482;-59
2023/02/06 10:05:18;;;;;;;11.43;6.97;;;3.60;99.90;;;;;;5009124;28;20439;-59
2023/02/06 10:08:18;;;;;;;11.97;5.57;;;3.50;99.90;;;;;;4982655;28;20454;-60
2023/02/06 10:10:54;;;;;;;10.90;6.23;;;3.50;99.90;;;;;;4996896;28;20447;-58
2023/02/06 10:13:28;;;;;;;11.17;5.70;;;3.40;99.90;;;;;;5006392;28;20439;-58
2023/02/06 10:16:05;;;;;;;13.20;6.20;;;3.30;99.90;;;;;;5009036;28;20457;-59
2023/02/06 10:18:53;;;;;;;10.83;6.10;;;3.20;99.90;;;;;;5005186;28;20437;-59
2023/02/06 10:21:36;;;;;;;9.13;6.07;;;3.20;99.90;;;;;;5007227;28;20458;-59
2023/02/06 10:24:15;;;;;;;12.80;6.40;;;3.30;99.90;;;;;;5010582;28;20430;-61
2023/02/06 10:26:41;;;;;;;12.10;6.17;;;3.30;99.90;;;;;;5015433;28;20465;-59
2023/02/06 10:29:24;;;;;;;12.40;6.20;;;3.20;99.90;;;;;;5009348;28;20493;-60
2023/02/06 10:32:12;;;;;;;12.10;6.17;;;3.20;99.90;;;;;;5005393;28;20219;-59
2023/02/06 10:35:15;;;;;;;9.60;5.60;;;3.20;99.90;;;;;;5006688;28;20461;-58
2023/02/06 10:38:01;;;;;;;13.90;6.40;;;3.10;99.90;;;;;;5004846;28;20462;-59
2023/02/06 10:40:47;;;;;;;15.90;6.43;;;3.00;99.90;;;;;;5004950;28;20443;-58
2023/02/06 10:43:22;;;;;;;10.73;5.90;;;2.90;99.90;;;;;;5009620;28;20447;-59
2023/02/06 10:46:19;;;;;;;11.03;6.03;;;2.80;99.90;;;;;;5006924;28;20857;-59
2023/02/06 10:49:10;;;;;;;10.33;5.13;;;2.80;99.90;;;;;;5001417;28;21058;-59
2023/02/06 10:51:42;;;;;;;9.00;5.90;;;2.70;99.90;;;;;;5006525;28;20457;-58
2023/02/06 10:54:10;;;;;;;7.83;5.90;;;2.70;99.90;;;;;;5004295;28;20522;-59
2023/02/06 10:56:43;;;;;;;9.80;5.83;;;2.70;99.90;;;;;;5007721;28;20496;-59
2023/02/06 10:59:29;;;;;;;10.30;5.77;;;2.70;99.90;;;;;;5009958;28;20439;-59
2023/02/06 11:02:06;;;;;;;8.83;4.87;;;2.70;99.90;;;;;;4998526;28;20516;-60
2023/02/06 11:04:34;;;;;;;11.33;5.33;;;2.70;99.90;;;;;;5006355;28;20447;-60
2023/02/06 11:07:06;;;;;;;11.97;6.00;;;2.70;99.90;;;;;;5008483;28;20546;-59
2023/02/06 11:09:32;;;;;;;9.23;5.80;;;2.70;99.90;;;;;;5004032;28;20440;-60
2023/02/06 11:11:59;;;;;;;14.00;5.57;;;2.60;99.90;;;;;;5028094;28;20454;-60
2023/02/06 11:14:29;;;;;;;10.67;5.60;;;2.60;99.90;;;;;;5006833;28;21106;-59
2023/02/06 11:16:58;;;;;;;13.73;6.17;;;2.60;99.90;;;;;;5002669;28;20823;-59
2023/02/06 11:19:40;;;;;;;10.60;5.80;;;2.60;99.90;;;;;;5004633;28;20435;-60
2023/02/06 11:22:06;;;;;;;9.70;5.90;;;2.60;99.90;;;;;;5001809;28;21019;-60
2023/02/06 11:24:33;;;;;;;8.13;5.57;;;2.50;99.90;;;;;;5001649;28;20439;-61
2023/02/06 11:27:13;;;;;;;11.40;6.33;;;2.60;99.90;;;;;;5003143;28;20577;-60
2023/02/06 11:29:45;;;;;;;10.03;6.03;;;2.60;99.90;;;;;;5006725;28;20467;-59
2023/02/06 11:32:32;;;;;;;12.17;6.37;;;2.60;99.90;;;;;;5003008;28;20550;-60
2023/02/06 11:35:06;;;;;;;12.80;6.67;;;2.60;99.90;;;;;;5005059;28;20514;-62
2023/02/06 11:37:31;;;;;;;9.43;5.27;;;2.60;99.90;;;;;;4993721;28;20434;-59
2023/02/06 11:40:26;;;;;;;10.27;5.93;;;2.60;99.90;;;;;;4999184;28;20438;-60
2023/02/06 11:43:17;;;;;;;10.60;6.40;;;2.60;99.90;;;;;;5003749;28;20284;-59
2023/02/06 11:45:43;;;;;;;10.73;6.30;;;2.70;99.90;;;;;;5001968;28;20472;-60
2023/02/06 11:48:36;;;;;;;11.83;6.50;;;2.80;99.90;;;;;;5005487;28;20432;-60
2023/02/06 11:51:02;;;;;;;10.00;5.80;;;2.80;99.90;;;;;;5006900;28;20447;-60
2023/02/06 11:53:28;;;;;;;10.20;6.33;;;2.90;99.90;;;;;;5002821;28;20951;-60
2023/02/06 11:56:16;;;;;;;9.87;5.43;;;2.90;99.90;;;;;;5007594;28;20434;-59
2023/02/06 11:58:42;;;;;;;12.10;5.60;;;2.90;99.90;;;;;;5029491;28;20211;-60
2023/02/06 12:01:17;;;;;;;9.37;5.80;;;2.90;99.90;;;;;;5004128;28;20459;-59
2023/02/06 12:03:50;;;;;;;11.47;6.13;;;2.90;99.90;;;;;;5027436;28;20406;-60
2023/02/06 12:06:34;;;;;;;12.57;5.90;;;2.90;97.90;;;;;;5008350;28;20462;-59
2023/02/06 12:09:04;;;;;;;11.57;6.40;;;2.90;97.20;;;;;;5004192;28;20523;-61
2023/02/06 12:11:51;;;;;;;9.67;5.93;;;2.90;97.70;;;;;;5000404;28;20447;-64
2023/02/06 12:14:40;;;;;;;13.37;6.00;;;3.00;98.70;;;;;;5003596;28;21084;-62
2023/02/06 12:17:18;;;;;;;9.10;5.60;;;3.20;99.00;;;;;;5001628;28;20432;-62
2023/02/06 12:19:49;;;;;;;9.90;5.90;;;3.70;98.20;;;;;;5005254;28;20842;-61
2023/02/06 12:22:21;;;;;;;9.00;6.27;;;4.00;93.50;;;;;;5000459;28;20967;-61
2023/02/06 12:24:50;;;;;;;9.90;6.23;;;4.20;90.30;;;;;;5005031;28;20427;-60
2023/02/06 12:27:45;;;;;;;10.53;6.80;;;4.20;86.70;;;;;;5005496;28;20470;-60
2023/02/06 12:30:30;;;;;;;10.73;6.10;;;4.10;88.30;;;;;;4992975;28;20429;-62
2023/02/06 12:33:08;;;;;;;19.93;7.00;;;3.90;88.30;;;;;;5005545;28;20570;-61
2023/02/06 12:35:43;;;;;;;10.93;6.17;;;3.70;84.60;;;;;;5001204;28;20806;-61
2023/02/06 12:38:18;;;;;;;9.90;6.03;;;3.50;87.70;;;;;;5018292;28;20538;-60
2023/02/06 12:41:05;;;;;;;12.17;6.87;;;3.30;90.40;;;;;;5002124;28;20420;-62
2023/02/06 12:43:34;;;;;;;10.97;6.53;;;3.10;89.10;;;;;;5009212;28;21124;-61
2023/02/06 12:46:19;;;;;;;11.00;6.13;;;3.00;90.50;;;;;;5006988;28;20447;-61
2023/02/06 12:48:48;;;;;;;9.00;5.40;;;3.00;91.60;;;;;;5015725;28;20458;-61
2023/02/06 12:51:39;;;;;;;13.97;6.70;;;2.90;91.60;;;;;;5003462;28;20534;-60
2023/02/06 12:54:36;;;;;;;8.70;5.40;;;2.80;91.50;;;;;;5016009;28;20950;-62
2023/02/06 12:57:16;;;;;;;12.37;7.20;;;2.80;90.90;;;;;;5005243;28;20518;-60
2023/02/06 13:00:04;;;;;;;10.20;6.10;;;2.80;92.30;;;;;;5007131;28;20473;-63
2023/02/06 13:03:00;;;;;;;10.63;5.77;;;2.80;92.00;;;;;;5008343;28;20960;-62
2023/02/06 13:05:32;;;;;;;9.37;5.60;;;2.80;91.30;;;;;;5010600;28;20431;-61
2023/02/06 13:08:05;;;;;;;11.77;6.70;;;2.80;92.20;;;;;;5010170;28;20434;-62